createdAt,value
2023-04-09T00:02:06.695Z,23.38
2023-04-09T00:04:53.920Z,23.80
2023-04-09T00:07:42.591Z,22.67
2023-04-09T00:10:30.947Z,26.08
2023-04-09T00:13:22.764Z,23.20
2023-04-09T00:16:18.906Z,25.60
2023-04-09T00:19:06.083Z,25.35
2023-04-09T00:21:53.148Z,23.70
2023-04-09T00:24:40.651Z,28.65
2023-04-09T00:27:27.684Z,28.80
2023-04-09T00:30:14.773Z,23.35
2023-04-09T00:33:01.876Z,23.17
2023-04-09T00:35:49.001Z,23.42
2023-04-09T00:38:36.284Z,24.63
2023-04-09T00:41:23.601Z,22.23
2023-04-09T00:44:10.751Z,24.38
2023-04-09T00:46:59.660Z,26.05
2023-04-09T00:49:46.889Z,29.50
2023-04-09T00:52:34.249Z,23.90
2023-04-09T00:55:22.567Z,27.40
2023-04-09T00:58:09.719Z,25.95
2023-04-09T01:00:56.922Z,27.55
2023-04-09T01:03:44.336Z,24.67
2023-04-09T01:07:03.441Z,25.70
2023-04-09T01:10:36.017Z,27.30
2023-04-09T01:13:31.881Z,26.17
2023-04-09T01:16:22.764Z,26.98
2023-04-09T01:19:27.384Z,24.42
2023-04-09T01:22:39.451Z,26.60
2023-04-09T01:25:50.644Z,27.17
2023-04-09T01:28:44.325Z,25.73
2023-04-09T01:31:36.893Z,27.27
2023-04-09T01:34:25.624Z,27.17
2023-04-09T01:37:14.468Z,26.38
2023-04-09T01:40:02.239Z,22.65
2023-04-09T01:42:51.290Z,26.00
2023-04-09T01:45:39.076Z,28.33
2023-04-09T01:48:27.364Z,26.15
2023-04-09T01:51:15.812Z,25.70
2023-04-09T01:54:04.093Z,26.00
2023-04-09T01:56:51.246Z,26.85
2023-04-09T01:59:38.302Z,29.25
2023-04-09T02:02:37.405Z,26.67
2023-04-09T02:05:28.294Z,29.75
2023-04-09T02:08:21.133Z,27.42
2023-04-09T02:11:11.132Z,29.45
2023-04-09T02:13:58.527Z,26.92
2023-04-09T02:16:46.704Z,28.42
2023-04-09T02:19:45.009Z,27.80
2023-04-09T02:22:32.154Z,25.92
2023-04-09T02:25:19.547Z,27.23
2023-04-09T02:28:06.708Z,26.90
2023-04-09T02:30:53.846Z,25.13
2023-04-09T02:33:41.070Z,27.00
2023-04-09T02:36:28.205Z,27.60
2023-04-09T02:39:15.616Z,24.67
2023-04-09T02:42:02.841Z,24.35
2023-04-09T02:44:49.934Z,25.33
2023-04-09T02:47:37.196Z,25.58
2023-04-09T02:50:24.409Z,23.23
2023-04-09T02:53:11.620Z,25.00
2023-04-09T02:55:58.721Z,24.80
2023-04-09T02:58:45.878Z,23.70
2023-04-09T03:01:33.118Z,24.45
2023-04-09T03:04:20.340Z,22.95
2023-04-09T03:07:07.543Z,23.95
2023-04-09T03:09:54.684Z,22.38
2023-04-09T03:12:44.598Z,24.27
2023-04-09T03:15:31.728Z,22.83
2023-04-09T03:18:19.101Z,23.95
2023-04-09T03:21:07.739Z,28.70
2023-04-09T03:23:54.820Z,25.88
2023-04-09T03:26:42.044Z,25.40
2023-04-09T03:29:29.161Z,23.63
2023-04-09T03:32:17.892Z,24.55
2023-04-09T03:35:06.392Z,23.98
2023-04-09T03:37:53.696Z,23.67
2023-04-09T03:40:42.216Z,23.75
2023-04-09T03:43:29.396Z,26.60
2023-04-09T03:46:18.052Z,26.33
2023-04-09T03:49:05.590Z,27.40
2023-04-09T03:51:55.955Z,24.77
2023-04-09T03:54:43.775Z,24.92
2023-04-09T03:57:30.884Z,30.20
2023-04-09T04:00:18.108Z,25.50
2023-04-09T04:03:05.721Z,25.75
2023-04-09T04:05:53.159Z,24.27
2023-04-09T04:08:40.304Z,25.23
2023-04-09T04:11:27.424Z,25.90
2023-04-09T04:14:14.634Z,29.58
2023-04-09T04:17:01.716Z,26.40
2023-04-09T04:19:55.533Z,27.67
2023-04-09T04:22:42.611Z,27.48
2023-04-09T04:25:29.840Z,27.15
2023-04-09T04:28:17.113Z,30.27
2023-04-09T04:31:11.619Z,31.05
2023-04-09T04:33:58.756Z,27.65
2023-04-09T04:36:45.863Z,29.55
2023-04-09T04:39:33.178Z,28.45
2023-04-09T04:42:20.274Z,27.40
2023-04-09T04:45:08.189Z,27.08
2023-04-09T04:47:55.395Z,31.15
2023-04-09T04:50:42.775Z,32.53
2023-04-09T04:53:30.039Z,27.75
2023-04-09T04:56:17.190Z,30.23
2023-04-09T04:59:04.308Z,27.00
2023-04-09T05:01:51.486Z,33.30
2023-04-09T05:04:40.646Z,32.05
2023-04-09T05:07:27.901Z,34.83
2023-04-09T05:10:15.150Z,32.70
2023-04-09T05:13:02.371Z,36.53
2023-04-09T05:15:49.586Z,32.88
2023-04-09T05:18:38.881Z,30.95
2023-04-09T05:21:26.580Z,36.33
2023-04-09T05:24:13.807Z,35.08
2023-04-09T05:27:01.498Z,31.65
2023-04-09T05:29:48.726Z,32.70
2023-04-09T05:32:36.217Z,35.80
2023-04-09T05:35:30.376Z,34.20
2023-04-09T05:38:17.492Z,34.75
2023-04-09T05:41:04.805Z,32.85
2023-04-09T05:43:52.184Z,33.17
2023-04-09T05:46:39.570Z,35.67
2023-04-09T05:49:26.784Z,34.17
2023-04-09T05:52:28.089Z,34.13
2023-04-09T05:55:16.295Z,32.42
2023-04-09T05:58:11.266Z,33.00
2023-04-09T06:01:07.509Z,34.00
2023-04-09T06:04:08.580Z,34.58
2023-04-09T06:06:59.472Z,31.48
2023-04-09T06:09:53.447Z,34.13
2023-04-09T06:13:13.484Z,31.13
2023-04-09T06:16:12.110Z,35.05
2023-04-09T06:19:12.702Z,31.73
2023-04-09T06:22:08.757Z,33.28
2023-04-09T06:24:58.471Z,33.83
2023-04-09T06:27:57.457Z,30.45
2023-04-09T06:30:48.812Z,28.75
2023-04-09T06:33:42.338Z,30.02
2023-04-09T06:36:37.253Z,30.15
2023-04-09T06:39:24.369Z,32.58
2023-04-09T06:42:11.382Z,27.33
2023-04-09T06:44:58.435Z,28.23
2023-04-09T06:47:45.495Z,28.25
2023-04-09T06:50:32.671Z,29.10
2023-04-09T06:53:20.214Z,28.60
2023-04-09T06:56:08.526Z,29.60
2023-04-09T06:58:55.568Z,31.52
2023-04-09T07:01:43.336Z,28.52
2023-04-09T07:04:30.589Z,27.60
2023-04-09T07:07:17.954Z,29.90
2023-04-09T07:10:06.482Z,28.98
2023-04-09T07:12:53.522Z,28.30
2023-04-09T07:15:42.444Z,26.20
2023-04-09T07:18:31.245Z,28.90
2023-04-09T07:21:18.300Z,29.33
2023-04-09T07:24:05.916Z,26.05
2023-04-09T07:26:53.965Z,23.35
2023-04-09T07:29:44.750Z,26.40
2023-04-09T07:32:32.262Z,24.83
2023-04-09T07:35:19.540Z,27.60
2023-04-09T07:38:06.517Z,27.02
2023-04-09T07:40:53.558Z,23.92
2023-04-09T07:43:41.618Z,26.08
2023-04-09T07:46:28.701Z,23.73
2023-04-09T07:49:17.403Z,25.27
2023-04-09T07:52:05.739Z,26.23
2023-04-09T07:54:53.013Z,27.35
2023-04-09T07:57:40.078Z,25.50
2023-04-09T08:00:27.094Z,24.05
2023-04-09T08:03:14.387Z,25.38
2023-04-09T08:06:02.117Z,24.05
2023-04-09T08:08:49.159Z,24.70
2023-04-09T08:11:36.186Z,24.83
2023-04-09T08:14:23.307Z,26.20
2023-04-09T08:17:10.284Z,25.40
2023-04-09T08:19:57.417Z,24.73
2023-04-09T08:22:45.443Z,26.33
2023-04-09T08:25:32.454Z,26.33
2023-04-09T08:28:19.520Z,28.55
2023-04-09T08:31:06.657Z,25.70
2023-04-09T08:33:53.695Z,28.02
2023-04-09T08:36:41.052Z,27.73
2023-04-09T08:39:28.132Z,28.77
2023-04-09T08:42:16.239Z,28.08
2023-04-09T08:45:05.529Z,27.42
2023-04-09T08:47:53.137Z,25.85
2023-04-09T08:50:40.547Z,29.42
2023-04-09T08:53:28.115Z,28.15
2023-04-09T08:56:15.934Z,26.85
2023-04-09T08:59:02.970Z,28.33
2023-04-09T09:02:06.610Z,24.42
2023-04-09T09:04:55.316Z,25.20
2023-04-09T09:07:53.967Z,27.13
2023-04-09T09:10:44.007Z,25.90
2023-04-09T09:16:18.584Z,27.40
2023-04-09T09:19:06.642Z,29.30
2023-04-09T09:22:01.874Z,28.77
2023-04-09T09:24:51.403Z,28.35
2023-04-09T09:27:40.649Z,27.77
2023-04-09T09:30:27.874Z,28.20
2023-04-09T09:33:15.026Z,28.63
2023-04-09T09:36:03.987Z,26.98
2023-04-09T09:38:56.370Z,24.70
2023-04-09T09:41:45.094Z,27.80
2023-04-09T09:44:33.697Z,31.00
2023-04-09T09:47:21.753Z,26.65
2023-04-09T09:50:09.400Z,29.15
2023-04-09T09:53:03.702Z,27.27
2023-04-09T09:55:53.834Z,29.25
2023-04-09T09:58:54.669Z,28.98
2023-04-09T10:01:44.614Z,26.77
2023-04-09T10:04:38.315Z,32.53
2023-04-09T10:07:25.781Z,32.35
2023-04-09T10:10:13.006Z,32.55
2023-04-09T10:13:00.822Z,27.52
2023-04-09T10:15:48.860Z,30.25
2023-04-09T10:18:36.860Z,27.80
2023-04-09T10:21:57.938Z,28.67
2023-04-09T10:24:45.866Z,31.33
2023-04-09T10:27:32.878Z,29.77
2023-04-09T10:30:36.818Z,28.20
2023-04-09T10:33:29.071Z,27.05
2023-04-09T10:36:19.339Z,27.48
2023-04-09T10:39:13.868Z,29.20
2023-04-09T10:42:09.061Z,30.02
2023-04-09T10:45:09.226Z,27.85
2023-04-09T10:47:56.644Z,27.58
2023-04-09T10:50:44.799Z,26.67
2023-04-09T10:53:32.648Z,27.73
2023-04-09T10:56:19.641Z,28.73
2023-04-09T10:59:06.901Z,26.00
2023-04-09T11:01:55.069Z,25.25
2023-04-09T11:04:48.260Z,25.52
2023-04-09T11:07:40.493Z,24.70
2023-04-09T11:10:28.551Z,25.00
2023-04-09T11:13:17.355Z,25.30
2023-04-09T11:16:07.344Z,23.70
2023-04-09T11:18:56.305Z,22.50
2023-04-09T11:21:46.528Z,25.88
2023-04-09T11:24:43.688Z,21.42
2023-04-09T11:27:30.809Z,25.30
2023-04-09T11:30:18.237Z,24.63
2023-04-09T11:33:07.212Z,26.83
2023-04-09T11:35:54.332Z,24.85
2023-04-09T11:38:41.542Z,25.10
2023-04-09T11:41:38.788Z,30.17
2023-04-09T11:44:25.945Z,23.02
2023-04-09T11:47:19.257Z,24.92
2023-04-09T11:50:08.368Z,24.20
2023-04-09T11:52:55.679Z,25.67
2023-04-09T11:55:42.923Z,25.88
2023-04-09T11:58:29.931Z,26.33
2023-04-09T12:01:17.240Z,26.88
2023-04-09T12:04:05.933Z,20.48
2023-04-09T12:07:02.342Z,23.83
2023-04-09T12:09:49.483Z,23.50
2023-04-09T12:12:47.977Z,23.30
2023-04-09T12:15:37.201Z,21.35
2023-04-09T12:18:24.885Z,22.08
2023-04-09T12:21:11.954Z,27.25
2023-04-09T12:23:59.013Z,25.00
2023-04-09T12:26:47.193Z,24.65
2023-04-09T12:29:34.323Z,23.08
2023-04-09T12:32:21.554Z,25.10
2023-04-09T12:35:08.951Z,21.23
2023-04-09T12:40:22.903Z,22.60
2023-04-09T12:43:09.940Z,21.95
2023-04-09T12:45:57.304Z,21.40
2023-04-09T12:48:44.333Z,24.88
2023-04-09T12:51:31.416Z,22.30
2023-04-09T12:54:18.439Z,24.63
2023-04-09T12:57:05.962Z,22.40
2023-04-09T12:59:56.887Z,22.17
2023-04-09T13:02:44.200Z,22.15
2023-04-09T13:05:35.496Z,21.85
2023-04-09T13:08:22.655Z,24.17
2023-04-09T13:11:09.689Z,22.20
2023-04-09T13:13:56.780Z,21.92
2023-04-09T13:16:43.897Z,21.42
2023-04-09T13:19:31.323Z,21.38
2023-04-09T13:22:19.027Z,21.40
2023-04-09T13:25:06.392Z,21.88
2023-04-09T13:27:53.416Z,22.05
2023-04-09T13:30:40.571Z,20.00
2023-04-09T13:33:27.613Z,22.38
2023-04-09T13:36:14.857Z,22.70
2023-04-09T13:39:08.734Z,23.80
2023-04-09T13:41:56.457Z,20.38
2023-04-09T13:44:46.891Z,20.52
2023-04-09T13:47:37.510Z,19.58
2023-04-09T13:50:24.757Z,19.73
2023-04-09T13:53:12.734Z,17.60
2023-04-09T13:55:59.817Z,19.75
2023-04-09T13:58:47.531Z,20.05
2023-04-09T14:01:34.846Z,18.40
2023-04-09T14:04:22.763Z,19.80
2023-04-09T14:07:09.876Z,20.77
2023-04-09T14:09:57.036Z,17.10
2023-04-09T14:12:44.094Z,16.17
2023-04-09T14:15:31.253Z,15.90
2023-04-09T14:18:18.358Z,14.57
2023-04-09T14:21:08.108Z,18.25
2023-04-09T14:23:56.599Z,15.02
2023-04-09T14:26:43.797Z,15.07
2023-04-09T14:29:30.895Z,14.10
2023-04-09T14:32:18.159Z,13.63
2023-04-09T14:35:06.088Z,14.88
2023-04-09T14:37:53.137Z,13.52
2023-04-09T14:40:40.326Z,14.52
2023-04-09T14:43:27.804Z,21.65
2023-04-09T14:46:14.932Z,18.15
2023-04-09T14:49:02.255Z,71.00
2023-04-09T14:51:49.562Z,20.77
2023-04-09T14:54:37.982Z,20.10
2023-04-09T14:57:25.926Z,17.65
2023-04-09T15:00:13.533Z,18.23
2023-04-09T15:03:00.938Z,49.60
2023-04-09T15:05:48.434Z,93.85
2023-04-09T15:08:35.513Z,96.53
2023-04-09T15:11:23.212Z,47.60
2023-04-09T15:14:10.430Z,19.77
2023-04-09T15:16:57.549Z,17.80
2023-04-09T15:19:44.597Z,17.55
2023-04-09T15:22:31.718Z,17.08
2023-04-09T15:25:18.794Z,21.25
2023-04-09T15:28:06.874Z,19.85
2023-04-09T15:30:55.032Z,19.20
2023-04-09T15:33:47.066Z,27.98
2023-04-09T15:36:34.159Z,19.65
2023-04-09T15:39:24.610Z,17.35
2023-04-09T15:42:12.853Z,18.45
2023-04-09T15:47:48.723Z,19.70
2023-04-09T15:50:35.853Z,20.83
2023-04-09T15:53:26.724Z,27.67
2023-04-09T15:56:17.009Z,28.50
2023-04-09T15:59:05.444Z,33.83
2023-04-09T16:01:53.168Z,26.15
2023-04-09T16:04:40.581Z,23.60
2023-04-09T16:07:27.786Z,20.38
2023-04-09T16:10:14.816Z,19.48
2023-04-09T16:13:03.233Z,18.95
2023-04-09T16:15:51.247Z,19.92
2023-04-09T16:18:38.452Z,18.25
2023-04-09T16:21:25.975Z,18.13
2023-04-09T16:24:14.131Z,17.83
2023-04-09T16:27:01.671Z,18.88
2023-04-09T16:29:48.783Z,20.50
2023-04-09T16:32:35.958Z,25.92
2023-04-09T16:35:23.107Z,19.83
2023-04-09T16:38:10.402Z,23.80
2023-04-09T16:40:57.560Z,15.70
2023-04-09T16:43:46.698Z,18.73
2023-04-09T16:46:33.769Z,15.30
2023-04-09T16:49:20.846Z,15.55
2023-04-09T16:52:08.004Z,14.77
2023-04-09T16:54:55.572Z,14.68
2023-04-09T16:57:43.021Z,15.23
2023-04-09T17:00:30.057Z,14.20
2023-04-09T17:03:17.256Z,15.32
2023-04-09T17:06:05.027Z,16.02
2023-04-09T17:08:52.373Z,17.27
2023-04-09T17:11:39.674Z,14.98
2023-04-09T17:14:27.609Z,16.40
2023-04-09T17:17:14.671Z,19.75
2023-04-09T17:20:01.935Z,17.77
2023-04-09T17:22:49.020Z,18.70
2023-04-09T17:25:36.489Z,16.63
2023-04-09T17:28:23.631Z,17.13
2023-04-09T17:31:16.161Z,17.20
2023-04-09T17:34:03.658Z,22.00
2023-04-09T17:36:56.564Z,19.13
2023-04-09T17:39:43.565Z,18.48
2023-04-09T17:42:31.341Z,26.42
2023-04-09T17:45:18.379Z,23.10
2023-04-09T17:48:05.717Z,23.30
2023-04-09T17:50:52.772Z,21.83
2023-04-09T17:53:39.822Z,20.58
2023-04-09T17:56:27.268Z,23.02
2023-04-09T17:59:14.375Z,22.13
2023-04-09T18:02:02.433Z,19.17
2023-04-09T18:04:49.780Z,23.40
2023-04-09T18:07:36.910Z,24.55
2023-04-09T18:10:24.052Z,26.02
2023-04-09T18:13:11.133Z,26.95
2023-04-09T18:15:58.254Z,23.63
2023-04-09T18:18:45.366Z,23.17
2023-04-09T18:21:32.922Z,26.98
2023-04-09T18:24:20.026Z,22.85
2023-04-09T18:27:07.145Z,25.05
2023-04-09T18:29:54.276Z,22.15
2023-04-09T18:32:41.585Z,25.25
2023-04-09T18:35:28.869Z,24.38
2023-04-09T18:38:16.089Z,23.73
2023-04-09T18:41:03.542Z,24.77
2023-04-09T18:43:50.743Z,22.05
2023-04-09T18:46:37.898Z,24.70
2023-04-09T18:49:27.019Z,24.58
2023-04-09T18:52:14.258Z,24.67
2023-04-09T18:55:01.590Z,24.75
2023-04-09T18:57:48.816Z,25.20
2023-04-09T19:00:36.000Z,23.23
2023-04-09T19:03:23.950Z,23.35
2023-04-09T19:06:18.066Z,22.27
2023-04-09T19:09:05.171Z,24.85
2023-04-09T19:11:52.247Z,24.13
2023-04-09T19:14:40.557Z,20.80
2023-04-09T19:17:28.933Z,23.75
2023-04-09T19:20:20.234Z,22.08
2023-04-09T19:23:07.409Z,20.27
2023-04-09T19:26:08.785Z,22.77
2023-04-09T19:28:56.298Z,23.05
2023-04-09T19:31:43.419Z,22.27
2023-04-09T19:34:30.609Z,22.30
2023-04-09T19:37:19.206Z,20.90
2023-04-09T19:40:07.077Z,21.30
2023-04-09T19:42:54.041Z,19.25
2023-04-09T19:45:42.684Z,23.00
2023-04-09T19:48:29.726Z,19.92
2023-04-09T19:51:20.475Z,24.92
2023-04-09T19:54:09.785Z,22.40
2023-04-09T19:56:57.061Z,20.70
2023-04-09T19:59:44.042Z,21.73
2023-04-09T20:02:32.032Z,22.73
2023-04-09T20:05:21.150Z,24.88
2023-04-09T20:08:11.769Z,24.90
2023-04-09T20:11:01.334Z,25.50
2023-04-09T20:13:48.996Z,22.50
2023-04-09T20:16:36.008Z,22.75
2023-04-09T20:19:23.314Z,24.55
2023-04-09T20:22:10.381Z,23.52
2023-04-09T20:24:58.128Z,21.63
2023-04-09T20:27:45.136Z,21.58
2023-04-09T20:30:32.456Z,22.17
2023-04-09T20:33:19.505Z,21.60
2023-04-09T20:36:15.305Z,20.40
2023-04-09T20:39:02.378Z,23.33
2023-04-09T20:41:49.515Z,20.00
2023-04-09T20:44:36.509Z,21.63
2023-04-09T20:47:23.860Z,26.45
2023-04-09T20:50:11.330Z,25.38
2023-04-09T20:52:59.015Z,26.48
2023-04-09T20:55:46.570Z,21.00
2023-04-09T20:58:33.681Z,21.25
2023-04-09T21:01:22.021Z,20.80
2023-04-09T21:04:09.262Z,22.20
2023-04-09T21:06:56.384Z,25.92
2023-04-09T21:09:43.427Z,24.52
2023-04-09T21:12:32.634Z,26.77
2023-04-09T21:15:20.800Z,25.23
2023-04-09T21:18:07.857Z,26.50
2023-04-09T21:20:54.952Z,25.70
2023-04-09T21:23:42.070Z,21.98
2023-04-09T21:26:33.689Z,24.92
2023-04-09T21:29:25.761Z,22.85
2023-04-09T21:32:12.958Z,23.98
2023-04-09T21:35:00.061Z,21.65
2023-04-09T21:37:48.182Z,23.60
2023-04-09T21:40:35.243Z,20.75
2023-04-09T21:43:22.291Z,20.52
2023-04-09T21:46:09.397Z,24.00
2023-04-09T21:48:56.494Z,21.00
2023-04-09T21:51:45.906Z,22.80
2023-04-09T21:54:33.471Z,22.80
2023-04-09T21:57:20.495Z,23.48
2023-04-09T22:00:10.605Z,21.42
2023-04-09T22:03:01.419Z,22.75
2023-04-09T22:05:48.798Z,21.70
2023-04-09T22:08:40.510Z,23.60
2023-04-09T22:11:36.401Z,20.98
2023-04-09T22:14:23.424Z,24.55
2023-04-09T22:17:10.489Z,21.08
2023-04-09T22:19:57.555Z,23.58
2023-04-09T22:22:44.681Z,22.88
2023-04-09T22:25:35.057Z,21.73
2023-04-09T22:28:22.641Z,24.40
2023-04-09T22:31:09.821Z,19.75
2023-04-09T22:33:58.667Z,22.85
2023-04-09T22:36:45.772Z,20.35
2023-04-09T22:39:32.977Z,22.13
2023-04-09T22:42:20.008Z,22.52
2023-04-09T22:45:08.652Z,21.98
2023-04-09T22:47:55.890Z,22.67
2023-04-09T22:50:44.227Z,21.85
2023-04-09T22:53:31.396Z,22.77
2023-04-09T22:56:19.643Z,23.52
2023-04-09T22:59:06.849Z,22.77
2023-04-09T23:03:33.539Z,24.02
2023-04-09T23:06:20.851Z,24.80
2023-04-09T23:09:08.062Z,21.23
2023-04-09T23:11:55.095Z,22.35
2023-04-09T23:14:42.101Z,24.27
2023-04-09T23:17:29.176Z,23.60
2023-04-09T23:20:17.356Z,21.15
2023-04-09T23:23:04.358Z,21.33
2023-04-09T23:25:51.412Z,20.63
2023-04-09T23:28:38.483Z,23.27
2023-04-09T23:31:25.679Z,22.85
2023-04-09T23:34:13.148Z,20.98
2023-04-09T23:37:00.296Z,18.48
2023-04-09T23:39:47.987Z,21.10
2023-04-09T23:42:35.729Z,19.10
2023-04-09T23:45:23.873Z,21.58
2023-04-09T23:48:11.999Z,22.13
2023-04-09T23:51:00.153Z,21.27
2023-04-09T23:53:47.292Z,20.98
2023-04-09T23:56:47.044Z,24.25
2023-04-09T23:59:36.051Z,25.67
